Time;durP1;ratioP1;P1;durP2;ratioP2;P2;SDS_P1;SDS_P2;PMS_P1;PMS_P2;Temp;Humidity;BMP_temperature;BMP_pressure;BME280_temperature;BME280_humidity;BME280_pressure;Samples;Min_cycle;Max_cycle;Signal;HPM_P1;HPM_P2
2023/03/04 00:00:26;;;;;;;13.60;3.10;;;4.90;99.90;;;;;;4944667;28;20303;-75
2023/03/04 00:02:53;;;;;;;10.43;2.63;;;4.90;99.90;;;;;;4948116;28;22340;-75
2023/03/04 00:05:20;;;;;;;7.83;2.10;;;4.90;99.90;;;;;;4953051;28;20223;-75
2023/03/04 00:07:47;;;;;;;10.47;2.60;;;4.90;99.90;;;;;;4948668;28;20591;-78
2023/03/04 00:10:15;;;;;;;12.63;2.23;;;4.90;99.90;;;;;;4935625;28;20242;-78
2023/03/04 00:12:42;;;;;;;6.73;2.00;;;4.90;99.90;;;;;;4925214;28;20579;-76
2023/03/04 00:15:10;;;;;;;12.67;3.03;;;4.80;99.90;;;;;;4932535;28;20326;-76
2023/03/04 00:17:37;;;;;;;11.50;2.50;;;4.90;99.90;;;;;;4928896;23;20322;-76
2023/03/04 00:20:04;;;;;;;9.23;2.23;;;4.90;99.90;;;;;;4966354;23;20240;-76
2023/03/04 00:22:31;;;;;;;10.30;2.93;;;5.00;99.90;;;;;;4944247;28;20301;-76
2023/03/04 00:24:58;;;;;;;9.20;2.10;;;4.90;99.90;;;;;;4971271;23;20789;-76
2023/03/04 00:27:26;;;;;;;7.83;1.80;;;5.00;99.90;;;;;;4968214;28;20246;-76
2023/03/04 00:29:52;;;;;;;8.17;2.00;;;5.00;99.90;;;;;;4959043;28;20322;-76
2023/03/04 00:32:19;;;;;;;11.87;2.30;;;5.00;99.90;;;;;;4953110;28;20958;-76
2023/03/04 00:34:46;;;;;;;7.23;2.00;;;5.00;99.90;;;;;;4958863;28;20239;-76
2023/03/04 00:37:13;;;;;;;14.10;2.53;;;5.00;99.90;;;;;;4964656;28;20600;-79
2023/03/04 00:39:40;;;;;;;12.83;2.13;;;5.00;99.90;;;;;;4959675;28;20272;-78
2023/03/04 00:42:07;;;;;;;6.63;1.77;;;5.00;99.90;;;;;;4953629;28;20241;-80
2023/03/04 00:44:35;;;;;;;10.00;2.00;;;5.10;99.90;;;;;;4962518;28;20229;-80
2023/03/04 00:47:02;;;;;;;8.70;2.17;;;5.00;99.90;;;;;;4959241;28;20714;-75
2023/03/04 00:49:29;;;;;;;8.37;1.60;;;5.10;99.90;;;;;;4960749;28;20258;-75
2023/03/04 00:51:56;;;;;;;10.93;2.33;;;5.10;99.90;;;;;;4957692;28;20265;-76
2023/03/04 00:54:23;;;;;;;9.80;1.80;;;5.10;99.90;;;;;;4960926;28;20676;-75
2023/03/04 00:56:50;;;;;;;9.63;2.23;;;5.10;99.90;;;;;;4960467;28;20233;-76
2023/03/04 00:59:17;;;;;;;6.63;1.73;;;5.10;99.90;;;;;;4958328;28;20777;-75
2023/03/04 01:01:45;;;;;;;9.93;1.73;;;5.10;99.90;;;;;;4959224;28;20226;-80
2023/03/04 01:04:12;;;;;;;7.97;2.00;;;5.10;99.90;;;;;;4954054;28;20250;-79
2023/03/04 01:06:38;;;;;;;6.80;1.80;;;5.10;99.90;;;;;;4959879;28;20229;-78
2023/03/04 01:09:05;;;;;;;9.63;1.87;;;5.10;99.90;;;;;;4950526;28;20253;-79
2023/03/04 01:11:32;;;;;;;7.07;1.73;;;5.10;99.90;;;;;;4952818;28;20254;-79
2023/03/04 01:13:59;;;;;;;7.27;1.70;;;5.20;99.90;;;;;;4947452;23;20230;-79
2023/03/04 01:16:26;;;;;;;6.30;1.57;;;5.20;99.90;;;;;;4957542;28;20313;-77
2023/03/04 01:18:55;;;;;;;10.37;2.57;;;5.20;99.90;;;;;;4958331;28;20229;-77
2023/03/04 01:21:23;;;;;;;6.03;1.70;;;5.20;99.90;;;;;;4928232;28;20926;-78
2023/03/04 01:23:50;;;;;;;9.17;1.67;;;5.20;99.90;;;;;;4947780;28;20251;-77
2023/03/04 01:26:17;;;;;;;9.37;2.03;;;5.20;99.90;;;;;;4960859;28;20825;-77
2023/03/04 01:28:44;;;;;;;10.40;2.23;;;5.20;99.90;;;;;;4911586;23;20242;-79
2023/03/04 01:31:11;;;;;;;6.97;1.77;;;5.20;99.90;;;;;;4919560;29;21164;-80
2023/03/04 01:33:37;;;;;;;6.87;1.90;;;5.20;99.90;;;;;;4933317;28;20257;-79
2023/03/04 01:36:06;;;;;;;8.67;1.67;;;5.20;99.90;;;;;;4921368;29;20235;-77
2023/03/04 01:38:33;;;;;;;6.63;1.77;;;5.20;99.90;;;;;;4923647;29;20242;-79
2023/03/04 01:41:01;;;;;;;8.50;2.00;;;5.30;99.90;;;;;;4937319;28;20302;-78
2023/03/04 01:43:31;;;;;;;5.80;1.60;;;5.20;99.90;;;;;;4919387;29;20272;-79
2023/03/04 01:45:58;;;;;;;8.37;2.00;;;5.30;99.90;;;;;;4919346;29;20296;-79
2023/03/04 01:48:28;;;;;;;5.60;2.70;;;5.30;99.90;;;;;;4912555;28;20342;-79
2023/03/04 01:50:55;;;;;;;8.83;2.13;;;5.30;99.90;;;;;;4920909;29;20737;-79
2023/03/04 01:53:26;;;;;;;5.70;1.50;;;5.20;99.90;;;;;;4909311;29;20223;-77
2023/03/04 01:55:56;;;;;;;6.60;2.07;;;5.30;99.90;;;;;;4937233;28;20226;-76
2023/03/04 01:58:26;;;;;;;11.07;2.03;;;5.30;99.90;;;;;;4936743;28;20446;-77
2023/03/04 02:00:53;;;;;;;10.37;1.83;;;5.30;99.90;;;;;;4911801;28;20227;-79
2023/03/04 02:03:20;;;;;;;8.80;1.70;;;5.30;99.90;;;;;;4925478;28;20223;-79
2023/03/04 02:05:50;;;;;;;5.03;1.40;;;5.30;99.90;;;;;;4912651;28;20232;-77
2023/03/04 02:08:20;;;;;;;5.73;1.63;;;5.30;99.90;;;;;;4907875;28;20395;-78
2023/03/04 02:10:49;;;;;;;6.33;1.83;;;5.30;99.90;;;;;;4936960;29;20224;-79
2023/03/04 02:13:16;;;;;;;9.50;2.10;;;5.30;99.90;;;;;;4938140;23;20577;-77
2023/03/04 02:15:45;;;;;;;7.90;1.53;;;5.30;99.90;;;;;;4927321;29;20645;-77
2023/03/04 02:18:16;;;;;;;7.37;1.70;;;5.30;99.90;;;;;;4929547;28;20582;-77
2023/03/04 02:20:50;;;;;;;9.23;1.63;;;5.30;99.90;;;;;;4940929;28;20314;-78
2023/03/04 02:23:24;;;;;;;6.30;1.80;;;5.30;99.90;;;;;;4932774;28;20226;-78
2023/03/04 02:26:07;;;;;;;8.27;1.90;;;5.30;99.90;;;;;;4942224;28;20233;-78
2023/03/04 02:28:34;;;;;;;7.80;1.60;;;5.30;99.90;;;;;;4930862;29;20232;-78
2023/03/04 02:31:01;;;;;;;7.80;1.80;;;5.30;99.90;;;;;;4929122;28;20302;-78
2023/03/04 02:33:28;;;;;;;6.07;1.63;;;5.30;99.90;;;;;;4941274;28;20221;-77
2023/03/04 02:35:55;;;;;;;11.67;1.70;;;5.30;99.90;;;;;;4935575;23;20320;-80
2023/03/04 02:38:22;;;;;;;8.03;1.50;;;5.30;99.90;;;;;;4956278;28;20226;-79
2023/03/04 02:40:52;;;;;;;5.97;1.47;;;5.30;99.90;;;;;;4941462;28;20592;-77
2023/03/04 02:43:21;;;;;;;7.23;1.70;;;5.30;99.90;;;;;;4944721;28;20245;-77
2023/03/04 02:45:49;;;;;;;7.83;1.73;;;5.30;99.90;;;;;;4941964;28;20220;-77
2023/03/04 02:48:19;;;;;;;10.60;2.03;;;5.30;99.90;;;;;;4962242;28;20265;-75
2023/03/04 02:50:49;;;;;;;12.50;1.80;;;5.30;99.90;;;;;;4969739;23;20267;-81
2023/03/04 02:53:17;;;;;;;9.43;2.23;;;5.30;99.90;;;;;;4947186;23;20238;-79
2023/03/04 02:55:45;;;;;;;6.67;1.93;;;5.30;99.90;;;;;;4950122;23;20238;-79
2023/03/04 02:58:13;;;;;;;5.73;1.80;;;5.30;99.90;;;;;;4947449;28;20669;-77
2023/03/04 03:00:42;;;;;;;8.10;2.20;;;5.30;99.90;;;;;;4943184;28;20241;-79
2023/03/04 03:03:09;;;;;;;6.23;2.10;;;5.30;99.90;;;;;;4960948;28;20290;-76
2023/03/04 03:05:38;;;;;;;7.33;2.23;;;5.30;99.90;;;;;;4958098;28;20231;-75
2023/03/04 03:08:06;;;;;;;6.93;2.07;;;5.30;99.90;;;;;;4945570;28;20878;-78
2023/03/04 03:10:34;;;;;;;8.07;1.80;;;5.30;99.90;;;;;;4954997;28;20228;-77
2023/03/04 03:13:02;;;;;;;8.03;2.30;;;5.30;99.90;;;;;;4946714;28;20230;-76
2023/03/04 03:15:29;;;;;;;10.33;1.80;;;5.30;99.90;;;;;;4953427;28;20297;-76
2023/03/04 03:17:57;;;;;;;8.07;2.27;;;5.40;99.90;;;;;;4952384;28;20240;-77
2023/03/04 03:20:24;;;;;;;9.77;1.83;;;5.30;99.90;;;;;;4945742;28;20245;-79
2023/03/04 03:22:52;;;;;;;6.67;1.70;;;5.30;99.90;;;;;;4987192;23;20282;-76
2023/03/04 03:25:19;;;;;;;7.73;2.07;;;5.30;99.90;;;;;;4982678;28;20233;-76
2023/03/04 03:27:45;;;;;;;7.70;1.90;;;5.30;99.90;;;;;;4985110;28;20233;-83
2023/03/04 03:30:15;;;;;;;9.93;1.97;;;5.30;99.90;;;;;;4981486;28;20235;-80
2023/03/04 03:32:41;;;;;;;7.90;1.37;;;5.30;99.90;;;;;;4976603;28;20225;-76
2023/03/04 03:35:10;;;;;;;8.30;2.47;;;5.30;99.90;;;;;;4992116;23;20221;-80
2023/03/04 03:37:37;;;;;;;6.40;2.00;;;5.30;99.90;;;;;;5013421;28;20233;-76
2023/03/04 03:40:05;;;;;;;7.60;1.90;;;5.30;99.90;;;;;;4979617;28;20320;-75
2023/03/04 03:42:32;;;;;;;6.67;1.57;;;5.30;99.90;;;;;;4976100;28;20253;-83
2023/03/04 03:44:59;;;;;;;10.63;2.20;;;5.30;99.90;;;;;;4979518;28;20749;-82
2023/03/04 03:47:26;;;;;;;7.83;2.10;;;5.30;99.90;;;;;;4978559;28;20247;-81
2023/03/04 03:49:53;;;;;;;10.70;1.80;;;5.30;99.90;;;;;;4977445;28;21139;-79
2023/03/04 03:52:21;;;;;;;6.80;1.73;;;5.30;99.90;;;;;;4976437;28;20240;-80
2023/03/04 03:54:48;;;;;;;7.07;1.93;;;5.30;99.90;;;;;;4979800;28;20240;-80
2023/03/04 03:57:15;;;;;;;6.97;1.77;;;5.30;99.90;;;;;;4980576;28;20237;-79
2023/03/04 03:59:42;;;;;;;13.23;2.20;;;5.30;99.90;;;;;;4994809;23;20659;-78
2023/03/04 04:02:08;;;;;;;7.97;1.70;;;5.30;99.90;;;;;;5003924;28;20235;-76
2023/03/04 04:04:35;;;;;;;6.00;2.00;;;5.30;99.90;;;;;;5001938;28;20311;-79
2023/03/04 04:07:02;;;;;;;11.20;2.10;;;5.30;99.90;;;;;;5001934;28;20226;-79
2023/03/04 04:09:30;;;;;;;8.17;2.13;;;5.30;99.90;;;;;;5002925;28;20234;-79
2023/03/04 04:11:57;;;;;;;5.73;1.70;;;5.30;99.90;;;;;;4998588;28;20309;-80
2023/03/04 04:14:23;;;;;;;7.03;2.07;;;5.30;99.90;;;;;;4984633;23;20389;-79
2023/03/04 04:16:50;;;;;;;11.00;1.97;;;5.30;99.90;;;;;;4980378;28;20689;-77
2023/03/04 04:19:19;;;;;;;7.20;1.97;;;5.30;99.90;;;;;;4980701;28;20261;-77
2023/03/04 04:21:46;;;;;;;5.70;1.70;;;5.30;99.90;;;;;;4980673;28;20239;-77
2023/03/04 04:24:13;;;;;;;8.83;1.80;;;5.30;99.90;;;;;;4983067;28;20225;-78
2023/03/04 04:26:42;;;;;;;9.67;1.80;;;5.30;99.90;;;;;;4976933;28;20304;-77
2023/03/04 04:29:13;;;;;;;9.50;2.37;;;5.30;99.90;;;;;;4979548;28;20225;-76
2023/03/04 04:31:40;;;;;;;12.13;1.80;;;5.30;99.90;;;;;;4980646;28;20224;-82
2023/03/04 04:34:08;;;;;;;4.53;1.63;;;5.30;99.90;;;;;;4980095;28;20307;-80
2023/03/04 04:36:35;;;;;;;8.90;1.77;;;5.30;99.90;;;;;;4979498;28;20357;-81
2023/03/04 04:39:02;;;;;;;9.80;2.00;;;5.30;99.90;;;;;;4981627;28;20893;-80
2023/03/04 04:41:38;;;;;;;7.60;1.90;;;5.30;99.90;;;;;;4990084;28;20230;-77
2023/03/04 04:44:07;;;;;;;8.33;1.83;;;5.30;99.90;;;;;;4980377;28;20614;-76
2023/03/04 04:46:35;;;;;;;8.93;1.80;;;5.30;99.90;;;;;;4955856;23;20230;-78
2023/03/04 04:49:01;;;;;;;9.00;2.57;;;5.30;99.90;;;;;;4959284;28;20226;-78
2023/03/04 04:51:29;;;;;;;11.73;2.57;;;5.30;99.90;;;;;;4961604;28;20316;-80
2023/03/04 04:53:56;;;;;;;9.43;1.70;;;5.30;99.90;;;;;;4942942;28;20227;-77
2023/03/04 04:56:25;;;;;;;8.90;2.13;;;5.30;99.90;;;;;;4942528;28;20253;-77
2023/03/04 04:58:54;;;;;;;10.40;2.30;;;5.30;99.90;;;;;;4938104;28;20461;-77
2023/03/04 05:01:26;;;;;;;13.43;2.33;;;5.30;99.90;;;;;;4939205;28;20229;-77
2023/03/04 05:03:56;;;;;;;10.23;2.33;;;5.20;99.90;;;;;;4938508;28;20226;-77
2023/03/04 05:06:24;;;;;;;14.37;3.47;;;5.20;99.90;;;;;;4956542;28;20325;-77
2023/03/04 05:09:02;;;;;;;13.17;2.80;;;5.20;99.90;;;;;;4954301;28;20249;-77
2023/03/04 05:11:29;;;;;;;10.90;2.10;;;5.20;99.90;;;;;;4929219;28;20319;-77
2023/03/04 05:13:56;;;;;;;11.57;2.63;;;5.20;99.90;;;;;;4942574;28;20222;-77
2023/03/04 05:16:23;;;;;;;14.63;3.20;;;5.20;99.90;;;;;;4940429;28;20345;-77
2023/03/04 05:18:57;;;;;;;10.27;2.63;;;5.20;99.90;;;;;;4936870;28;20231;-78
2023/03/04 05:21:26;;;;;;;14.67;2.97;;;5.10;99.90;;;;;;4940708;28;21086;-77
2023/03/04 05:23:53;;;;;;;8.93;2.27;;;5.20;99.90;;;;;;4941508;28;20854;-79
2023/03/04 05:26:20;;;;;;;13.37;3.33;;;5.20;99.90;;;;;;4933580;28;20231;-77
2023/03/04 05:28:47;;;;;;;14.20;3.03;;;5.10;99.90;;;;;;4943249;28;20223;-77
2023/03/04 05:31:16;;;;;;;11.83;2.43;;;5.10;99.90;;;;;;4936797;28;20226;-78
2023/03/04 05:33:43;;;;;;;16.03;3.43;;;5.10;99.90;;;;;;4950830;28;20246;-77
2023/03/04 05:36:12;;;;;;;14.07;3.30;;;5.10;99.90;;;;;;4950390;28;20312;-77
2023/03/04 05:38:41;;;;;;;13.43;3.53;;;5.10;99.90;;;;;;4938864;28;20289;-78
2023/03/04 05:41:08;;;;;;;13.10;2.83;;;5.10;99.90;;;;;;4949391;28;20232;-77
2023/03/04 05:43:37;;;;;;;11.40;2.57;;;5.10;99.90;;;;;;4939042;28;20309;-77
2023/03/04 05:46:04;;;;;;;12.97;2.80;;;5.10;99.90;;;;;;4942056;28;20332;-78
2023/03/04 05:48:31;;;;;;;11.90;3.60;;;5.10;99.90;;;;;;4939918;28;20235;-78
2023/03/04 05:51:00;;;;;;;18.33;6.13;;;5.10;99.90;;;;;;4955228;28;20229;-78
2023/03/04 05:53:29;;;;;;;11.43;2.80;;;5.20;99.90;;;;;;4941737;28;20796;-78
2023/03/04 05:55:59;;;;;;;12.03;2.93;;;5.10;99.90;;;;;;4939607;28;20303;-77
2023/03/04 05:58:26;;;;;;;13.03;3.73;;;5.10;99.90;;;;;;4935209;28;20305;-78
2023/03/04 06:00:53;;;;;;;13.73;3.83;;;5.10;99.90;;;;;;4941967;28;20259;-77
2023/03/04 06:03:24;;;;;;;12.90;3.20;;;5.10;99.90;;;;;;4942204;28;20221;-77
2023/03/04 06:05:58;;;;;;;15.40;3.30;;;5.10;99.90;;;;;;4943797;28;20272;-77
2023/03/04 06:08:25;;;;;;;13.33;3.70;;;5.10;99.90;;;;;;4956931;28;20238;-81
2023/03/04 06:10:55;;;;;;;11.80;3.17;;;5.10;99.90;;;;;;4945153;28;20301;-80
2023/03/04 06:13:23;;;;;;;12.90;3.30;;;5.10;99.90;;;;;;4945084;28;20227;-80
2023/03/04 06:15:55;;;;;;;14.87;3.03;;;5.10;99.90;;;;;;4934456;28;20225;-81
2023/03/04 06:18:22;;;;;;;19.20;4.10;;;5.10;99.90;;;;;;4954574;28;20804;-80
2023/03/04 06:20:52;;;;;;;14.97;3.30;;;5.10;99.90;;;;;;4962344;28;20314;-81
2023/03/04 06:23:19;;;;;;;18.67;3.73;;;5.10;99.90;;;;;;4944587;28;20237;-82
2023/03/04 06:25:46;;;;;;;16.70;3.60;;;5.10;99.90;;;;;;4957556;28;20225;-81
2023/03/04 06:28:14;;;;;;;13.47;3.10;;;5.10;99.90;;;;;;4956495;28;20239;-80
2023/03/04 06:30:41;;;;;;;13.93;3.10;;;5.10;99.90;;;;;;4955389;28;20226;-81
2023/03/04 06:33:11;;;;;;;17.03;3.80;;;5.10;99.90;;;;;;4953210;28;20225;-80
2023/03/04 06:35:38;;;;;;;19.17;3.53;;;5.10;99.90;;;;;;4938191;28;20238;-82
2023/03/04 06:38:05;;;;;;;18.47;3.57;;;5.10;99.90;;;;;;4953945;28;20288;-81
2023/03/04 06:40:38;;;;;;;15.20;3.00;;;5.10;99.90;;;;;;4955576;28;20226;-80
2023/03/04 06:43:08;;;;;;;18.10;3.70;;;5.10;99.90;;;;;;4956796;28;20270;-81
2023/03/04 06:45:41;;;;;;;19.23;4.50;;;5.10;99.90;;;;;;4947412;28;20242;-82
2023/03/04 06:48:14;;;;;;;17.63;4.50;;;5.10;99.90;;;;;;4951904;28;20237;-84
2023/03/04 06:50:47;;;;;;;15.93;3.53;;;5.00;99.90;;;;;;4946524;28;20743;-80
2023/03/04 06:53:14;;;;;;;15.63;4.03;;;5.00;99.90;;;;;;4940305;28;20232;-81
2023/03/04 06:55:41;;;;;;;14.67;2.93;;;5.00;99.90;;;;;;4940379;28;20232;-80
2023/03/04 06:58:08;;;;;;;14.47;3.63;;;5.00;99.90;;;;;;4935273;23;20242;-84
2023/03/04 07:00:35;;;;;;;15.07;4.00;;;5.00;99.90;;;;;;4957507;28;20240;-82
2023/03/04 07:03:03;;;;;;;16.50;3.30;;;5.00;99.90;;;;;;4933154;28;20241;-84
2023/03/04 07:05:29;;;;;;;19.37;3.77;;;5.00;99.90;;;;;;4945512;28;20589;-82
2023/03/04 07:07:56;;;;;;;21.10;4.10;;;5.00;99.90;;;;;;4967998;28;20233;-83
2023/03/04 07:10:23;;;;;;;12.37;3.33;;;5.00;99.90;;;;;;4949166;28;20229;-83
2023/03/04 07:12:49;;;;;;;19.57;3.70;;;5.00;99.90;;;;;;4951423;28;20306;-84
2023/03/04 07:15:16;;;;;;;17.03;3.70;;;5.00;99.90;;;;;;4956742;28;20236;-83
2023/03/04 07:17:43;;;;;;;11.33;3.13;;;5.00;99.90;;;;;;4971432;28;20240;-83
2023/03/04 07:20:12;;;;;;;11.67;3.20;;;5.00;99.90;;;;;;4956595;28;20237;-81
2023/03/04 07:22:38;;;;;;;15.33;3.37;;;5.00;99.90;;;;;;4956351;28;20240;-81
2023/03/04 07:25:06;;;;;;;16.30;3.03;;;5.00;99.90;;;;;;4956323;28;20240;-81
2023/03/04 07:27:32;;;;;;;16.37;3.17;;;5.00;99.90;;;;;;4970618;28;20250;-82
2023/03/04 07:29:59;;;;;;;9.33;2.87;;;5.00;99.90;;;;;;4954997;28;20324;-81
2023/03/04 07:32:26;;;;;;;15.57;3.37;;;5.00;99.90;;;;;;4954442;28;20711;-81
2023/03/04 07:34:52;;;;;;;14.43;2.80;;;5.00;99.90;;;;;;4958639;28;20227;-81
2023/03/04 07:37:20;;;;;;;11.17;2.50;;;5.00;99.90;;;;;;4956136;28;20721;-83
2023/03/04 07:39:47;;;;;;;12.47;3.23;;;4.90;99.90;;;;;;4972141;28;20244;-81
2023/03/04 07:42:14;;;;;;;13.67;3.00;;;5.00;99.90;;;;;;4973005;28;20289;-82
2023/03/04 07:44:42;;;;;;;12.87;3.00;;;5.00;99.90;;;;;;4957658;28;20231;-82
2023/03/04 07:47:09;;;;;;;12.10;2.70;;;5.00;99.90;;;;;;4971873;28;20801;-83
2023/03/04 07:49:37;;;;;;;11.90;2.80;;;5.10;99.90;;;;;;4953225;28;20286;-82
2023/03/04 07:52:04;;;;;;;60.23;21.80;;;5.00;99.90;;;;;;4968531;28;20828;-85
2023/03/04 07:54:32;;;;;;;15.83;4.37;;;5.00;99.90;;;;;;4952985;28;20254;-83
2023/03/04 07:56:59;;;;;;;20.23;4.43;;;5.00;99.90;;;;;;4956942;28;20232;-80
2023/03/04 07:59:25;;;;;;;38.20;12.77;;;5.10;99.90;;;;;;4953836;28;20250;-80
2023/03/04 08:01:52;;;;;;;30.00;11.13;;;5.10;99.90;;;;;;4954242;28;20268;-80
2023/03/04 08:04:19;;;;;;;17.37;4.10;;;5.00;99.90;;;;;;4955956;28;20328;-81
2023/03/04 08:06:47;;;;;;;17.90;3.83;;;5.10;99.90;;;;;;4952626;28;20227;-82
2023/03/04 08:09:14;;;;;;;14.57;3.07;;;5.00;99.90;;;;;;4949367;28;20311;-79
2023/03/04 08:11:43;;;;;;;19.07;4.60;;;5.10;99.90;;;;;;4963993;28;20260;-80
2023/03/04 08:14:11;;;;;;;18.27;3.87;;;5.10;99.90;;;;;;4968506;28;20598;-80
2023/03/04 08:16:38;;;;;;;21.87;4.67;;;5.10;99.90;;;;;;4949268;28;20251;-80
2023/03/04 08:19:06;;;;;;;18.93;4.63;;;5.10;99.90;;;;;;4935456;28;20638;-80
2023/03/04 08:21:33;;;;;;;18.83;4.47;;;5.10;99.90;;;;;;4954881;28;20225;-80
2023/03/04 08:24:06;;;;;;;18.40;3.90;;;5.10;99.90;;;;;;4953289;28;20337;-80
2023/03/04 08:26:37;;;;;;;18.10;4.10;;;5.20;99.90;;;;;;4951761;28;20261;-80
2023/03/04 08:29:05;;;;;;;15.07;4.13;;;5.10;99.90;;;;;;4951336;28;20297;-80
2023/03/04 08:31:32;;;;;;;16.33;3.70;;;5.10;99.90;;;;;;4953143;28;20237;-80
2023/03/04 08:33:59;;;;;;;22.13;4.50;;;5.10;99.90;;;;;;4968204;28;20236;-80
2023/03/04 08:36:26;;;;;;;17.63;5.27;;;5.10;99.90;;;;;;4968322;28;20221;-80
2023/03/04 08:38:53;;;;;;;17.60;4.67;;;5.20;99.90;;;;;;4953563;28;20257;-80
2023/03/04 08:41:19;;;;;;;17.77;4.03;;;5.20;99.90;;;;;;4967103;28;20240;-80
2023/03/04 08:43:46;;;;;;;17.27;3.67;;;5.20;99.90;;;;;;4953213;28;20309;-80
2023/03/04 08:46:14;;;;;;;16.40;4.10;;;5.20;99.90;;;;;;4945132;28;20909;-80
2023/03/04 08:48:41;;;;;;;23.10;4.40;;;5.20;99.90;;;;;;4948596;28;20313;-81
2023/03/04 08:51:08;;;;;;;21.97;3.87;;;5.20;99.90;;;;;;4950938;28;20242;-80
2023/03/04 08:53:35;;;;;;;10.47;3.00;;;5.20;99.90;;;;;;4952707;28;20225;-82
2023/03/04 08:56:02;;;;;;;15.40;3.40;;;5.20;99.90;;;;;;4954028;28;20499;-82
2023/03/04 08:58:29;;;;;;;12.60;3.93;;;5.20;99.90;;;;;;4970383;28;20729;-82
2023/03/04 09:00:55;;;;;;;14.67;4.03;;;5.20;99.90;;;;;;4953935;28;20735;-82
2023/03/04 09:03:23;;;;;;;20.17;4.33;;;5.20;99.90;;;;;;4947630;28;20226;-82
2023/03/04 09:05:50;;;;;;;13.50;3.97;;;5.20;99.90;;;;;;4957763;28;20243;-84
2023/03/04 09:08:17;;;;;;;22.57;4.27;;;5.20;99.90;;;;;;4948330;28;20233;-82
2023/03/04 09:10:45;;;;;;;14.87;3.87;;;5.30;99.90;;;;;;4950536;28;20229;-82
2023/03/04 09:13:14;;;;;;;21.30;4.87;;;5.30;99.90;;;;;;4963017;28;20234;-82
2023/03/04 09:15:44;;;;;;;18.83;3.97;;;5.30;99.90;;;;;;4965684;28;20249;-84
2023/03/04 09:18:11;;;;;;;19.43;3.77;;;5.30;99.90;;;;;;4945225;28;20367;-80
2023/03/04 09:20:40;;;;;;;17.17;4.00;;;5.30;99.90;;;;;;4944841;28;20234;-79
2023/03/04 09:23:08;;;;;;;16.97;3.80;;;5.30;99.90;;;;;;4941056;28;20229;-79
2023/03/04 09:25:35;;;;;;;12.90;3.37;;;5.30;99.90;;;;;;4944409;28;20684;-79
2023/03/04 09:28:01;;;;;;;14.40;4.10;;;5.30;99.90;;;;;;4941226;28;20976;-79
2023/03/04 09:30:28;;;;;;;14.77;3.70;;;5.40;99.90;;;;;;4943599;28;20222;-79
2023/03/04 09:32:55;;;;;;;12.10;3.57;;;5.40;99.90;;;;;;4957858;28;20309;-79
2023/03/04 09:35:22;;;;;;;14.70;4.87;;;5.40;99.90;;;;;;4941254;28;20219;-79
2023/03/04 09:37:51;;;;;;;17.37;3.90;;;5.40;99.90;;;;;;4943087;28;20236;-79
2023/03/04 09:40:20;;;;;;;17.23;3.97;;;5.50;99.90;;;;;;4945566;28;20280;-79
2023/03/04 09:42:51;;;;;;;10.47;3.83;;;5.50;99.90;;;;;;4939905;28;20232;-79
2023/03/04 09:45:21;;;;;;;17.73;4.37;;;5.50;99.90;;;;;;4941035;28;20249;-79
2023/03/04 09:47:50;;;;;;;20.63;3.83;;;5.50;99.90;;;;;;4938136;28;20318;-79
2023/03/04 09:50:19;;;;;;;14.90;3.23;;;5.50;99.90;;;;;;4958037;28;20232;-79
2023/03/04 09:53:02;;;;;;;16.77;3.87;;;5.60;99.90;;;;;;4939395;28;20658;-80
2023/03/04 09:55:34;;;;;;;19.60;4.70;;;5.60;99.80;;;;;;4948214;28;20732;-79
2023/03/04 09:58:06;;;;;;;13.77;3.90;;;5.60;99.90;;;;;;4958987;28;20326;-79
2023/03/04 10:00:38;;;;;;;16.80;4.03;;;5.60;99.90;;;;;;4946607;28;20600;-79
2023/03/04 10:03:14;;;;;;;17.37;4.40;;;5.70;99.90;;;;;;4946189;28;20223;-80
2023/03/04 10:05:45;;;;;;;16.27;3.87;;;5.70;99.90;;;;;;4950653;28;20232;-79
2023/03/04 10:08:29;;;;;;;20.17;3.97;;;5.70;99.90;;;;;;4948231;28;20230;-79
2023/03/04 10:10:58;;;;;;;16.87;4.23;;;5.70;99.40;;;;;;4943736;28;20227;-79
2023/03/04 10:13:31;;;;;;;14.07;4.20;;;5.80;99.90;;;;;;4940522;28;20223;-79
2023/03/04 10:16:01;;;;;;;19.67;4.27;;;5.80;99.20;;;;;;4949418;28;20717;-79
2023/03/04 10:18:33;;;;;;;19.20;3.87;;;5.90;99.30;;;;;;4956371;28;20234;-80
2023/03/04 10:21:04;;;;;;;18.70;4.77;;;5.90;99.20;;;;;;4944933;28;20499;-79
2023/03/04 10:23:36;;;;;;;18.40;4.50;;;5.90;99.00;;;;;;4945396;28;20237;-81
2023/03/04 10:26:12;;;;;;;19.13;3.87;;;6.00;98.30;;;;;;4946419;28;20212;-80
2023/03/04 10:28:39;;;;;;;16.43;4.03;;;6.00;98.60;;;;;;4944435;28;20230;-80
2023/03/04 10:31:12;;;;;;;12.83;3.93;;;6.10;98.90;;;;;;4946745;28;20737;-80
2023/03/04 10:33:40;;;;;;;15.50;3.53;;;6.20;98.80;;;;;;4947126;28;20278;-80
2023/03/04 10:36:41;;;;;;;17.57;3.67;;;6.30;98.90;;;;;;4947032;28;20229;-80
2023/03/04 10:39:12;;;;;;;11.90;3.53;;;6.40;98.50;;;;;;4946563;28;20230;-80
2023/03/04 10:41:43;;;;;;;21.90;4.57;;;6.50;98.70;;;;;;4947563;28;20232;-79
2023/03/04 10:44:16;;;;;;;17.87;4.10;;;6.70;98.60;;;;;;4947275;28;20248;-80
2023/03/04 10:46:44;;;;;;;17.43;4.00;;;6.80;98.30;;;;;;4948325;28;20216;-81
2023/03/04 10:49:13;;;;;;;20.43;4.17;;;6.90;98.30;;;;;;4965496;28;20232;-82
2023/03/04 10:51:44;;;;;;;14.33;3.93;;;7.00;98.00;;;;;;4952802;28;20714;-81
2023/03/04 10:54:24;;;;;;;10.63;3.83;;;7.00;97.90;;;;;;4964187;28;20657;-81
2023/03/04 10:56:57;;;;;;;15.93;4.57;;;7.00;97.50;;;;;;4949149;28;20225;-81
2023/03/04 10:59:49;;;;;;;17.87;4.17;;;7.00;97.80;;;;;;4950249;28;20242;-81
2023/03/04 11:02:25;;;;;;;18.03;3.43;;;7.00;97.30;;;;;;4945128;28;20232;-79
2023/03/04 11:05:04;;;;;;;12.60;3.67;;;7.00;96.90;;;;;;4946136;28;20271;-80
2023/03/04 11:07:31;;;;;;;12.33;3.10;;;7.00;96.80;;;;;;4942983;28;20233;-80
2023/03/04 11:10:10;;;;;;;11.83;3.90;;;6.90;97.20;;;;;;4951627;28;20225;-79
2023/03/04 11:12:37;;;;;;;14.27;3.70;;;6.90;96.60;;;;;;4939282;28;20656;-79
2023/03/04 11:15:16;;;;;;;13.27;3.10;;;7.00;96.80;;;;;;4946288;28;20234;-79
2023/03/04 11:17:47;;;;;;;16.20;4.33;;;7.00;96.80;;;;;;4948070;28;20244;-79
2023/03/04 11:20:22;;;;;;;14.23;3.43;;;7.00;97.20;;;;;;4943533;28;20232;-79
2023/03/04 11:22:50;;;;;;;17.20;4.80;;;7.00;96.80;;;;;;4943805;28;20730;-80
2023/03/04 11:25:26;;;;;;;18.00;4.10;;;7.00;97.00;;;;;;4947651;28;20243;-79
2023/03/04 11:27:55;;;;;;;13.17;3.77;;;7.10;96.30;;;;;;4947330;28;20248;-78
2023/03/04 11:30:43;;;;;;;16.80;3.90;;;7.10;96.80;;;;;;4946737;28;20230;-79
2023/03/04 11:33:16;;;;;;;15.73;3.67;;;7.10;96.40;;;;;;4944154;28;20224;-79
2023/03/04 11:35:52;;;;;;;23.37;4.50;;;7.10;96.50;;;;;;4948009;28;20235;-78
2023/03/04 11:38:21;;;;;;;11.23;3.87;;;7.10;96.70;;;;;;4927907;28;20681;-78
2023/03/04 11:40:53;;;;;;;13.30;3.80;;;7.20;96.80;;;;;;4937355;28;20225;-78
2023/03/04 11:43:24;;;;;;;9.90;3.37;;;7.30;96.70;;;;;;4946916;28;20237;-79
2023/03/04 11:46:10;;;;;;;13.20;3.83;;;7.30;96.20;;;;;;4947816;28;20241;-78
2023/03/04 11:48:53;;;;;;;11.73;2.97;;;7.40;95.60;;;;;;4946846;28;20228;-79
2023/03/04 11:51:25;;;;;;;14.93;3.50;;;7.40;95.20;;;;;;4940644;28;20794;-79
2023/03/04 11:54:11;;;;;;;16.00;4.07;;;7.50;96.10;;;;;;4946920;28;20232;-78
2023/03/04 11:56:43;;;;;;;15.73;3.50;;;7.70;95.40;;;;;;4947403;28;20237;-78
2023/03/04 11:59:23;;;;;;;14.37;3.70;;;7.80;95.50;;;;;;4959998;28;20242;-78
2023/03/04 12:01:59;;;;;;;14.73;3.63;;;8.00;95.40;;;;;;4945816;28;20230;-78
2023/03/04 12:04:43;;;;;;;12.67;3.73;;;8.10;95.30;;;;;;4944964;28;20338;-79
2023/03/04 12:07:30;;;;;;;14.40;3.00;;;8.10;94.80;;;;;;4943556;28;20238;-79
2023/03/04 12:10:05;;;;;;;12.93;3.30;;;8.10;94.40;;;;;;4943485;28;20925;-81
2023/03/04 12:12:57;;;;;;;13.17;3.40;;;8.20;94.80;;;;;;4948406;28;20230;-81
2023/03/04 12:15:32;;;;;;;13.83;3.10;;;8.20;94.30;;;;;;4940093;28;20235;-78
2023/03/04 12:18:11;;;;;;;16.83;3.43;;;8.10;94.20;;;;;;4945404;28;20225;-78
2023/03/04 12:21:00;;;;;;;15.63;3.47;;;8.20;94.30;;;;;;4946091;28;20229;-79
2023/03/04 12:23:41;;;;;;;9.43;2.90;;;8.10;94.20;;;;;;4955249;28;20234;-78
2023/03/04 12:26:22;;;;;;;15.30;3.70;;;8.20;94.10;;;;;;4945101;28;20231;-79
2023/03/04 12:28:56;;;;;;;11.73;3.07;;;8.10;93.90;;;;;;4946521;28;20227;-78
2023/03/04 12:31:37;;;;;;;9.37;2.90;;;8.10;93.90;;;;;;4946514;28;20233;-79
2023/03/04 12:34:27;;;;;;;14.10;3.13;;;8.00;93.30;;;;;;4945338;28;20783;-78
2023/03/04 12:37:04;;;;;;;11.17;3.07;;;7.90;93.80;;;;;;4944411;28;20827;-79
2023/03/04 12:39:33;;;;;;;11.50;3.40;;;7.90;94.00;;;;;;4955207;28;20240;-78
2023/03/04 12:42:08;;;;;;;8.13;2.67;;;7.90;94.10;;;;;;4946643;28;20234;-78
2023/03/04 12:44:44;;;;;;;14.10;3.37;;;7.90;93.90;;;;;;4945674;28;20229;-79
2023/03/04 12:47:23;;;;;;;12.93;3.03;;;7.90;93.60;;;;;;4943257;28;20233;-78
2023/03/04 12:50:18;;;;;;;13.27;2.70;;;7.90;93.90;;;;;;4958306;28;20230;-78
2023/03/04 12:52:51;;;;;;;11.20;2.70;;;7.90;93.10;;;;;;4946096;28;20227;-79
2023/03/04 12:55:26;;;;;;;15.03;3.53;;;7.90;93.60;;;;;;4945890;28;20244;-78
2023/03/04 12:57:55;;;;;;;11.40;3.17;;;7.90;93.70;;;;;;4945932;28;20226;-79
2023/03/04 13:00:34;;;;;;;9.43;2.87;;;7.90;93.80;;;;;;4943146;28;20253;-76
2023/03/04 13:03:10;;;;;;;10.97;3.10;;;7.90;93.80;;;;;;4945488;28;20356;-76